Time;durP1;ratioP1;P1;durP2;ratioP2;P2;SDS_P1;SDS_P2;PMS_P1;PMS_P2;Temp;Humidity;BMP_temperature;BMP_pressure;BME280_temperature;BME280_humidity;BME280_pressure;Samples;Min_cycle;Max_cycle;Signal;HPM_P1;HPM_P2
2023/05/12 00:01:02;;;;;;;8.60;7.90;;;9.80;99.90;;;;;;5046035;28;20469;-79
2023/05/12 00:03:29;;;;;;;9.33;8.53;;;9.80;99.90;;;;;;5047342;28;20442;-79
2023/05/12 00:05:55;;;;;;;10.23;9.30;;;9.80;99.90;;;;;;5044358;28;20538;-79
2023/05/12 00:08:24;;;;;;;10.37;9.37;;;9.80;99.90;;;;;;5035599;28;20485;-79
2023/05/12 00:10:51;;;;;;;8.77;8.07;;;9.80;99.90;;;;;;5044279;28;20885;-80
2023/05/12 00:13:22;;;;;;;10.93;9.13;;;9.80;99.90;;;;;;5047886;28;20441;-79
2023/05/12 00:15:49;;;;;;;9.73;8.50;;;9.80;99.90;;;;;;5047309;28;20464;-79
2023/05/12 00:18:16;;;;;;;9.67;8.90;;;9.70;99.90;;;;;;5043737;28;20462;-79
2023/05/12 00:20:44;;;;;;;9.00;8.10;;;9.70;99.90;;;;;;5045528;28;20515;-79
2023/05/12 00:23:11;;;;;;;9.57;7.97;;;9.80;99.90;;;;;;5045026;28;20503;-80
2023/05/12 00:25:39;;;;;;;8.80;8.10;;;9.80;99.90;;;;;;5039346;28;20458;-80
2023/05/12 00:28:06;;;;;;;9.70;7.67;;;9.80;99.90;;;;;;5045223;28;20477;-80
2023/05/12 00:30:33;;;;;;;8.17;7.40;;;9.80;99.90;;;;;;5036708;28;20791;-80
2023/05/12 00:33:00;;;;;;;9.20;7.67;;;9.80;99.90;;;;;;5034188;28;20437;-80
2023/05/12 00:35:27;;;;;;;9.93;7.97;;;9.80;99.90;;;;;;5035157;28;20454;-81
2023/05/12 00:37:54;;;;;;;8.13;7.40;;;9.80;99.90;;;;;;5045105;28;20940;-80
2023/05/12 00:40:21;;;;;;;8.67;7.80;;;9.80;99.90;;;;;;5038328;28;21261;-80
2023/05/12 00:42:49;;;;;;;7.80;7.10;;;9.80;99.90;;;;;;5030897;28;20532;-80
2023/05/12 00:45:16;;;;;;;8.23;6.07;;;9.80;99.90;;;;;;5036243;28;20494;-80
2023/05/12 00:47:44;;;;;;;8.40;6.93;;;9.80;99.90;;;;;;5038014;28;20505;-79
2023/05/12 00:50:12;;;;;;;6.10;5.60;;;9.80;99.90;;;;;;5032439;28;20445;-79
2023/05/12 00:52:38;;;;;;;6.07;5.57;;;9.80;99.90;;;;;;5035538;28;20561;-80
2023/05/12 00:55:06;;;;;;;6.57;5.97;;;9.80;99.90;;;;;;5042209;28;20971;-80
2023/05/12 00:57:33;;;;;;;7.37;5.70;;;9.80;99.90;;;;;;5037649;28;20539;-80
2023/05/12 01:00:03;;;;;;;7.00;6.40;;;9.70;99.90;;;;;;5043875;28;20457;-80
2023/05/12 01:02:30;;;;;;;7.20;6.50;;;9.80;99.90;;;;;;5046166;28;20476;-80
2023/05/12 01:04:57;;;;;;;5.90;5.40;;;9.80;99.90;;;;;;5035032;28;20534;-80
2023/05/12 01:07:26;;;;;;;6.57;5.40;;;9.80;99.90;;;;;;5038882;28;20534;-81
2023/05/12 01:09:55;;;;;;;6.50;5.40;;;9.70;99.90;;;;;;5035083;28;20789;-79
2023/05/12 01:12:22;;;;;;;5.63;5.17;;;9.80;99.90;;;;;;5040397;28;20467;-79
2023/05/12 01:14:49;;;;;;;5.70;5.20;;;9.70;99.90;;;;;;5036564;28;20594;-80
2023/05/12 01:17:20;;;;;;;5.73;5.33;;;9.70;99.90;;;;;;5034697;28;20469;-80
2023/05/12 01:19:49;;;;;;;8.27;5.80;;;9.70;99.90;;;;;;5041786;28;20461;-79
2023/05/12 01:22:17;;;;;;;6.40;5.80;;;9.70;99.90;;;;;;5031667;28;20468;-79
2023/05/12 01:24:50;;;;;;;5.80;5.30;;;9.70;99.90;;;;;;5046733;28;20908;-80
2023/05/12 01:27:20;;;;;;;5.67;5.07;;;9.70;99.90;;;;;;5037501;28;20457;-79
2023/05/12 01:29:48;;;;;;;4.20;3.90;;;9.80;99.90;;;;;;5042467;28;20453;-78
2023/05/12 01:32:16;;;;;;;5.90;5.40;;;9.70;99.90;;;;;;5040290;28;20993;-79
2023/05/12 01:34:43;;;;;;;7.50;4.90;;;9.70;99.90;;;;;;5042933;28;20499;-80
2023/05/12 01:37:11;;;;;;;4.10;3.80;;;9.70;99.90;;;;;;5044243;28;20951;-79
2023/05/12 01:39:38;;;;;;;6.07;4.63;;;9.70;99.90;;;;;;5043929;28;20982;-81
2023/05/12 01:42:06;;;;;;;5.27;4.77;;;9.70;99.90;;;;;;5042660;28;20438;-79
2023/05/12 01:44:34;;;;;;;4.50;4.10;;;9.70;99.90;;;;;;5027889;28;20515;-79
2023/05/12 01:47:01;;;;;;;5.10;4.70;;;9.70;99.90;;;;;;5029144;28;20941;-79
2023/05/12 01:49:28;;;;;;;5.27;4.77;;;9.70;99.90;;;;;;5043110;28;20480;-80
2023/05/12 01:51:55;;;;;;;5.30;4.30;;;9.70;99.90;;;;;;5036909;28;20512;-79
2023/05/12 01:54:22;;;;;;;4.83;4.43;;;9.60;99.90;;;;;;5033438;28;20449;-79
2023/05/12 01:56:49;;;;;;;4.90;4.40;;;9.70;99.90;;;;;;5042850;28;21145;-79
2023/05/12 01:59:16;;;;;;;4.50;4.20;;;9.60;99.90;;;;;;5033594;28;20989;-79
2023/05/12 02:01:44;;;;;;;5.67;4.40;;;9.60;99.90;;;;;;5036040;28;20465;-81
2023/05/12 02:04:11;;;;;;;4.00;3.70;;;9.60;99.90;;;;;;5037790;28;20926;-79
2023/05/12 02:06:38;;;;;;;6.50;5.90;;;9.60;99.90;;;;;;5033883;28;21068;-79
2023/05/12 02:09:06;;;;;;;4.67;4.27;;;9.60;99.90;;;;;;5039333;28;20551;-79
2023/05/12 02:11:32;;;;;;;7.17;5.70;;;9.60;99.90;;;;;;5041248;28;20910;-79
2023/05/12 02:13:59;;;;;;;5.17;4.37;;;9.60;99.90;;;;;;5039995;28;20547;-78
2023/05/12 02:16:26;;;;;;;5.47;4.97;;;9.50;99.90;;;;;;5036264;28;20457;-79
2023/05/12 02:18:55;;;;;;;6.07;4.70;;;9.50;99.90;;;;;;5038809;28;21295;-79
2023/05/12 02:21:22;;;;;;;6.70;5.13;;;9.50;99.90;;;;;;5034709;28;20511;-81
2023/05/12 02:23:48;;;;;;;3.50;3.30;;;9.50;99.90;;;;;;5037991;28;20500;-81
2023/05/12 02:26:15;;;;;;;4.27;3.97;;;9.50;99.90;;;;;;5046606;28;20534;-79
2023/05/12 02:28:43;;;;;;;4.80;4.40;;;9.40;99.90;;;;;;5044991;28;20472;-79
2023/05/12 02:31:09;;;;;;;4.70;4.20;;;9.50;99.90;;;;;;5044512;28;20437;-79
2023/05/12 02:33:36;;;;;;;4.53;4.13;;;9.40;99.90;;;;;;5042252;28;20466;-79
2023/05/12 02:36:05;;;;;;;4.50;4.07;;;9.40;99.90;;;;;;5044021;28;20548;-80
2023/05/12 02:38:32;;;;;;;4.50;4.10;;;9.50;99.90;;;;;;5042587;28;20483;-79
2023/05/12 02:40:59;;;;;;;5.50;4.57;;;9.40;99.90;;;;;;5045170;28;20445;-79
2023/05/12 02:43:26;;;;;;;5.20;4.80;;;9.40;99.90;;;;;;5045519;28;20569;-80
2023/05/12 02:45:54;;;;;;;5.73;4.80;;;9.40;99.90;;;;;;5043614;28;20469;-82
2023/05/12 02:48:21;;;;;;;4.27;3.97;;;9.40;99.90;;;;;;5038968;28;20979;-79
2023/05/12 02:50:48;;;;;;;5.97;5.37;;;9.40;99.90;;;;;;5047515;28;20461;-79
2023/05/12 02:53:16;;;;;;;9.20;5.60;;;9.40;99.90;;;;;;5037637;28;20446;-81
2023/05/12 02:55:43;;;;;;;7.63;5.50;;;9.40;99.90;;;;;;5043485;28;20460;-80
2023/05/12 02:58:10;;;;;;;7.77;4.20;;;9.40;99.90;;;;;;5037723;28;20473;-79
2023/05/12 03:00:37;;;;;;;8.23;5.10;;;9.30;99.90;;;;;;5038718;28;20446;-79
2023/05/12 03:03:04;;;;;;;6.33;5.77;;;9.40;99.90;;;;;;5041541;28;20507;-79
2023/05/12 03:05:31;;;;;;;6.93;5.03;;;9.40;99.90;;;;;;5039962;28;20449;-79
2023/05/12 03:07:58;;;;;;;5.07;4.67;;;9.40;99.90;;;;;;5039588;28;20449;-81
2023/05/12 03:10:27;;;;;;;6.73;5.77;;;9.40;99.90;;;;;;5046890;28;20445;-79
2023/05/12 03:12:54;;;;;;;6.37;5.73;;;9.40;99.90;;;;;;5059800;28;20503;-81
2023/05/12 03:15:21;;;;;;;5.30;4.90;;;9.40;99.90;;;;;;5060567;28;20462;-79
2023/05/12 03:17:48;;;;;;;5.30;4.80;;;9.40;99.90;;;;;;5048557;28;20947;-79
2023/05/12 03:20:15;;;;;;;5.67;5.07;;;9.40;99.90;;;;;;5047551;28;20445;-80
2023/05/12 03:22:42;;;;;;;5.80;5.30;;;9.40;99.90;;;;;;5046845;28;20506;-79
2023/05/12 03:25:10;;;;;;;4.97;4.50;;;9.40;99.90;;;;;;5048196;28;20507;-79
2023/05/12 03:27:38;;;;;;;6.37;5.30;;;9.40;99.90;;;;;;5037940;28;20472;-80
2023/05/12 03:30:06;;;;;;;7.33;5.53;;;9.40;99.90;;;;;;5041421;28;20554;-80
2023/05/12 03:32:33;;;;;;;6.70;6.10;;;9.40;99.90;;;;;;5038504;28;20458;-79
2023/05/12 03:35:00;;;;;;;5.70;5.20;;;9.40;99.90;;;;;;5040628;28;20503;-81
2023/05/12 03:37:27;;;;;;;7.57;6.00;;;9.40;99.90;;;;;;5045302;28;20868;-80
2023/05/12 03:39:54;;;;;;;5.87;5.43;;;9.40;99.90;;;;;;5043661;28;20464;-82
2023/05/12 03:42:22;;;;;;;5.37;4.97;;;9.40;99.90;;;;;;5039668;28;20476;-81
2023/05/12 03:44:52;;;;;;;5.43;4.87;;;9.40;99.90;;;;;;5033613;28;20500;-79
2023/05/12 03:47:18;;;;;;;7.03;6.20;;;9.40;99.90;;;;;;5039974;28;21179;-79
2023/05/12 03:49:45;;;;;;;7.73;6.77;;;9.40;99.90;;;;;;5045744;28;20531;-78
2023/05/12 03:52:12;;;;;;;6.30;5.73;;;9.40;99.90;;;;;;5039894;28;20458;-79
2023/05/12 03:54:40;;;;;;;7.90;6.50;;;9.40;99.90;;;;;;5038011;28;20471;-79
2023/05/12 03:57:07;;;;;;;6.00;5.40;;;9.40;99.90;;;;;;5038358;28;20496;-80
2023/05/12 03:59:34;;;;;;;6.00;4.90;;;9.40;99.90;;;;;;5044573;28;20731;-81
2023/05/12 04:02:03;;;;;;;7.07;5.33;;;9.50;99.90;;;;;;5039285;28;20458;-78
2023/05/12 04:04:30;;;;;;;6.37;5.77;;;9.40;99.90;;;;;;5039710;28;20459;-79
2023/05/12 04:06:57;;;;;;;6.60;5.73;;;9.50;99.90;;;;;;5041267;28;20465;-79
2023/05/12 04:09:24;;;;;;;5.90;5.30;;;9.50;99.90;;;;;;5042331;28;20485;-79
2023/05/12 04:11:51;;;;;;;5.60;5.07;;;9.50;99.90;;;;;;5042472;28;20453;-80
2023/05/12 04:14:18;;;;;;;5.70;5.20;;;9.50;99.90;;;;;;5041786;28;20465;-82
2023/05/12 04:16:45;;;;;;;6.97;6.37;;;9.50;99.90;;;;;;5042115;28;20527;-80
2023/05/12 04:19:13;;;;;;;8.07;7.27;;;9.50;99.90;;;;;;5041538;28;20903;-80
2023/05/12 04:21:40;;;;;;;5.93;5.53;;;9.60;99.90;;;;;;5045911;28;20456;-79
2023/05/12 04:24:07;;;;;;;6.77;6.17;;;9.50;99.90;;;;;;5042520;28;20494;-80
2023/05/12 04:26:34;;;;;;;6.10;5.50;;;9.50;99.90;;;;;;5046931;28;20519;-78
2023/05/12 04:29:01;;;;;;;5.50;4.97;;;9.60;99.90;;;;;;5038992;28;20531;-80
2023/05/12 04:31:29;;;;;;;7.57;6.90;;;9.60;99.90;;;;;;5040734;28;21089;-80
2023/05/12 04:33:55;;;;;;;5.40;4.80;;;9.60;99.90;;;;;;5042648;28;20450;-79
2023/05/12 04:36:24;;;;;;;6.37;5.73;;;9.60;99.90;;;;;;5039096;28;20491;-80
2023/05/12 04:38:51;;;;;;;7.10;6.40;;;9.60;99.90;;;;;;5042293;28;20507;-80
2023/05/12 04:41:18;;;;;;;6.10;5.60;;;9.60;99.90;;;;;;5037586;28;20465;-80
2023/05/12 04:43:45;;;;;;;7.27;6.70;;;9.70;99.90;;;;;;5041616;28;21106;-79
2023/05/12 04:46:12;;;;;;;6.50;5.90;;;9.70;99.90;;;;;;5046352;28;20472;-80
2023/05/12 04:48:40;;;;;;;6.70;5.63;;;9.70;99.90;;;;;;5032573;28;20450;-80
2023/05/12 04:51:07;;;;;;;5.77;5.27;;;9.70;99.90;;;;;;5032300;28;20540;-81
2023/05/12 04:53:36;;;;;;;6.43;5.90;;;9.70;99.90;;;;;;5034445;28;21258;-81
2023/05/12 04:56:03;;;;;;;5.97;5.30;;;9.70;99.90;;;;;;5030805;28;20504;-80
2023/05/12 04:58:30;;;;;;;6.43;5.30;;;9.80;99.90;;;;;;5045736;28;20544;-80
2023/05/12 05:00:57;;;;;;;5.97;5.47;;;9.70;99.90;;;;;;5037026;28;20442;-81
2023/05/12 05:03:24;;;;;;;6.60;6.00;;;9.70;99.90;;;;;;5034270;28;20433;-81
2023/05/12 05:05:51;;;;;;;6.23;5.63;;;9.70;99.90;;;;;;5026285;28;20613;-81
2023/05/12 05:08:18;;;;;;;9.07;5.93;;;9.80;99.90;;;;;;5035525;28;20458;-80
2023/05/12 05:10:46;;;;;;;5.30;4.90;;;9.80;99.90;;;;;;5036472;28;20930;-80
2023/05/12 05:13:13;;;;;;;8.83;7.37;;;9.80;99.90;;;;;;5031181;28;20524;-80
2023/05/12 05:15:40;;;;;;;5.23;4.83;;;9.80;99.90;;;;;;5037473;28;21059;-81
2023/05/12 05:18:08;;;;;;;5.80;5.20;;;9.90;99.90;;;;;;5041307;28;20465;-81
2023/05/12 05:20:34;;;;;;;9.23;6.40;;;9.90;99.90;;;;;;5042398;28;20458;-80
2023/05/12 05:23:02;;;;;;;5.37;4.87;;;9.90;99.90;;;;;;5046030;28;20503;-81
2023/05/12 05:25:28;;;;;;;7.77;5.83;;;9.90;99.90;;;;;;5044671;28;20512;-81
2023/05/12 05:27:57;;;;;;;5.37;4.87;;;9.90;99.90;;;;;;5043346;28;21453;-80
2023/05/12 05:30:24;;;;;;;5.93;5.43;;;9.90;99.90;;;;;;5040268;28;20833;-80
2023/05/12 05:32:51;;;;;;;5.77;5.27;;;9.90;99.90;;;;;;5036005;28;20449;-80
2023/05/12 05:35:18;;;;;;;4.90;4.50;;;10.00;99.90;;;;;;5048321;28;20460;-81
2023/05/12 05:37:45;;;;;;;5.43;4.93;;;10.00;99.90;;;;;;5037725;28;21093;-81
2023/05/12 05:40:13;;;;;;;5.53;5.00;;;10.00;99.90;;;;;;5038036;28;20472;-80
2023/05/12 05:42:40;;;;;;;5.47;5.00;;;10.00;99.90;;;;;;5040834;28;20496;-80
2023/05/12 05:45:09;;;;;;;5.80;4.77;;;10.00;99.90;;;;;;5037265;28;20434;-80
2023/05/12 05:47:36;;;;;;;5.90;5.40;;;10.10;99.90;;;;;;5040447;28;20460;-81
2023/05/12 05:50:03;;;;;;;5.83;5.23;;;10.10;99.90;;;;;;5040703;28;20582;-81
2023/05/12 05:52:30;;;;;;;6.43;5.83;;;10.10;99.90;;;;;;5043169;28;20469;-81
2023/05/12 05:54:57;;;;;;;4.70;4.30;;;10.10;99.90;;;;;;5034553;28;20461;-80
2023/05/12 05:57:26;;;;;;;5.87;5.37;;;10.10;99.90;;;;;;5041457;28;20457;-80
2023/05/12 05:59:53;;;;;;;5.80;5.20;;;10.10;99.90;;;;;;5038777;28;20449;-79
2023/05/12 06:02:22;;;;;;;4.90;4.50;;;10.10;99.90;;;;;;5036219;28;20529;-79
2023/05/12 06:04:49;;;;;;;5.43;4.80;;;10.10;99.90;;;;;;5043024;28;20528;-79
2023/05/12 06:07:16;;;;;;;5.77;5.23;;;10.10;99.90;;;;;;5039510;28;21031;-79
2023/05/12 06:09:43;;;;;;;5.00;4.60;;;10.20;99.90;;;;;;5038466;28;20860;-78
2023/05/12 06:12:10;;;;;;;6.13;4.30;;;10.20;99.90;;;;;;5041854;28;20511;-79
2023/05/12 06:14:37;;;;;;;5.00;4.60;;;10.20;99.90;;;;;;5037317;28;20511;-81
2023/05/12 06:17:04;;;;;;;5.87;5.10;;;10.20;99.90;;;;;;5041898;28;20979;-79
2023/05/12 06:19:32;;;;;;;5.63;4.33;;;10.20;99.90;;;;;;5047164;28;20990;-79
2023/05/12 06:21:59;;;;;;;5.00;4.03;;;10.20;99.90;;;;;;5055048;28;20531;-80
2023/05/12 06:24:26;;;;;;;5.43;4.93;;;10.20;99.90;;;;;;5048630;28;20510;-79
2023/05/12 06:26:53;;;;;;;5.30;4.90;;;10.20;99.90;;;;;;5054403;28;20525;-79
2023/05/12 06:29:20;;;;;;;4.30;4.00;;;10.20;99.90;;;;;;5045354;28;20815;-80
2023/05/12 06:31:48;;;;;;;4.97;4.57;;;10.10;99.90;;;;;;5038280;28;20489;-79
2023/05/12 06:34:14;;;;;;;5.53;4.63;;;10.10;99.90;;;;;;5039963;28;20460;-80
2023/05/12 06:36:43;;;;;;;8.20;5.10;;;10.10;99.90;;;;;;5041497;28;20542;-78
2023/05/12 06:39:10;;;;;;;5.83;4.80;;;10.20;99.90;;;;;;5045039;28;20522;-79
2023/05/12 06:41:37;;;;;;;5.30;4.90;;;10.20;99.90;;;;;;5046796;28;20932;-80
2023/05/12 06:44:05;;;;;;;5.40;5.00;;;10.10;99.90;;;;;;5041550;28;20524;-79
2023/05/12 06:46:32;;;;;;;5.00;4.60;;;10.10;99.90;;;;;;5049677;28;20460;-80
2023/05/12 06:49:00;;;;;;;4.97;4.67;;;10.20;99.90;;;;;;5051178;28;20511;-79
2023/05/12 06:51:27;;;;;;;4.93;4.53;;;10.20;99.90;;;;;;5042878;28;21025;-80
2023/05/12 06:53:55;;;;;;;6.43;5.20;;;10.30;99.90;;;;;;5039859;28;20482;-81
2023/05/12 06:56:22;;;;;;;5.50;5.10;;;10.30;99.90;;;;;;5046294;28;20453;-80
2023/05/12 06:58:49;;;;;;;5.00;4.50;;;10.20;99.90;;;;;;5044057;28;20456;-79
2023/05/12 07:01:16;;;;;;;5.00;4.60;;;10.20;99.90;;;;;;5047089;28;20457;-79
2023/05/12 07:03:44;;;;;;;4.30;4.00;;;10.30;99.90;;;;;;5038443;28;20458;-82
2023/05/12 07:06:11;;;;;;;4.93;4.57;;;10.30;99.90;;;;;;5034534;28;20438;-78
2023/05/12 07:08:38;;;;;;;4.53;4.23;;;10.30;99.90;;;;;;5051321;28;20462;-78
2023/05/12 07:11:06;;;;;;;4.47;3.57;;;10.30;99.90;;;;;;5050184;28;20938;-80
2023/05/12 07:13:33;;;;;;;4.10;3.80;;;10.20;99.90;;;;;;5042570;28;20457;-81
2023/05/12 07:16:01;;;;;;;5.43;4.90;;;10.30;99.90;;;;;;5037310;28;20446;-79
2023/05/12 07:18:28;;;;;;;4.93;4.53;;;10.40;99.90;;;;;;5041415;28;20567;-78
2023/05/12 07:20:55;;;;;;;7.37;4.87;;;10.40;99.90;;;;;;5033831;28;20466;-79
2023/05/12 07:23:22;;;;;;;4.50;4.13;;;10.50;99.90;;;;;;5034729;28;20528;-78
2023/05/12 07:25:49;;;;;;;4.40;4.00;;;10.40;99.90;;;;;;5043420;28;20457;-81
2023/05/12 07:28:17;;;;;;;3.80;3.50;;;10.40;99.90;;;;;;5043117;28;20460;-84
2023/05/12 07:30:44;;;;;;;3.80;3.50;;;10.40;99.90;;;;;;5037439;28;20551;-78
2023/05/12 07:33:11;;;;;;;3.70;3.40;;;10.40;99.90;;;;;;5038835;28;20465;-80
2023/05/12 07:35:38;;;;;;;4.57;4.27;;;10.40;99.90;;;;;;5034829;28;20450;-79
2023/05/12 07:38:05;;;;;;;3.97;3.63;;;10.40;99.90;;;;;;5041264;28;20462;-79
2023/05/12 07:40:32;;;;;;;4.83;4.43;;;10.50;99.90;;;;;;5037618;28;20460;-81
2023/05/12 07:42:59;;;;;;;4.37;3.87;;;10.50;99.90;;;;;;5042015;28;20445;-81
2023/05/12 07:45:28;;;;;;;4.40;4.10;;;10.50;99.90;;;;;;5047599;28;20464;-78
2023/05/12 07:47:54;;;;;;;4.40;4.10;;;10.60;99.90;;;;;;5048846;28;20515;-79
2023/05/12 07:50:21;;;;;;;3.07;2.87;;;10.70;99.90;;;;;;5047261;28;20535;-78
2023/05/12 07:52:50;;;;;;;3.67;3.37;;;10.70;99.90;;;;;;5044046;28;20473;-80
2023/05/12 07:55:18;;;;;;;3.83;3.63;;;10.60;99.90;;;;;;5036608;28;20520;-78
2023/05/12 07:57:45;;;;;;;4.20;3.90;;;10.80;99.90;;;;;;5040527;28;21243;-79
2023/05/12 08:00:13;;;;;;;3.13;2.93;;;10.80;99.90;;;;;;5044072;28;20584;-79
2023/05/12 08:02:42;;;;;;;2.83;2.63;;;10.90;99.90;;;;;;5043841;28;20461;-80
2023/05/12 08:05:09;;;;;;;3.73;3.53;;;10.80;99.90;;;;;;5056539;28;20464;-79
2023/05/12 08:07:37;;;;;;;2.50;2.33;;;10.90;99.90;;;;;;5036824;28;20461;-82
2023/05/12 08:10:05;;;;;;;3.13;2.93;;;10.90;99.90;;;;;;5036487;28;20524;-78
2023/05/12 08:12:32;;;;;;;3.53;3.20;;;10.80;99.90;;;;;;5038462;28;20536;-79
2023/05/12 08:14:59;;;;;;;3.37;3.13;;;11.00;99.90;;;;;;5039382;28;20458;-79
2023/05/12 08:17:26;;;;;;;3.40;3.20;;;11.00;99.90;;;;;;5037912;28;20534;-81
2023/05/12 08:19:55;;;;;;;3.40;3.20;;;11.10;99.90;;;;;;5038108;28;20457;-81
2023/05/12 08:22:22;;;;;;;2.80;2.60;;;11.10;99.90;;;;;;5040861;28;20449;-78
2023/05/12 08:24:49;;;;;;;3.97;3.67;;;11.10;99.90;;;;;;5039299;28;20469;-79
2023/05/12 08:27:16;;;;;;;3.30;3.00;;;11.20;99.90;;;;;;5043483;28;21956;-80
2023/05/12 08:29:43;;;;;;;2.77;2.57;;;11.30;99.90;;;;;;5034316;28;20498;-80
2023/05/12 08:32:10;;;;;;;2.47;2.37;;;11.40;99.90;;;;;;5037343;28;20445;-78
2023/05/12 08:34:37;;;;;;;2.40;2.20;;;11.40;99.90;;;;;;5042927;28;20510;-81
2023/05/12 08:37:06;;;;;;;3.10;2.90;;;11.30;99.90;;;;;;5040765;28;20944;-79
2023/05/12 08:39:33;;;;;;;3.00;2.70;;;11.20;99.90;;;;;;5038836;28;20454;-79
2023/05/12 08:42:12;;;;;;;2.27;2.13;;;11.20;99.90;;;;;;5043388;28;20458;-81
2023/05/12 08:44:40;;;;;;;2.60;2.40;;;11.20;99.90;;;;;;5039322;28;20477;-79
2023/05/12 08:47:08;;;;;;;2.03;1.93;;;11.10;99.90;;;;;;5037725;28;20468;-79
2023/05/12 08:49:37;;;;;;;13.00;9.67;;;11.10;99.90;;;;;;5042088;28;20507;-79
2023/05/12 08:52:07;;;;;;;45.23;28.43;;;11.00;99.90;;;;;;5042571;28;20571;-80
2023/05/12 08:54:36;;;;;;;29.20;18.97;;;11.00;99.90;;;;;;5043779;28;20465;-79
2023/05/12 08:57:05;;;;;;;9.87;8.50;;;11.00;99.90;;;;;;5043216;28;20461;-79
2023/05/12 08:59:33;;;;;;;22.90;18.23;;;11.00;99.90;;;;;;5044727;28;21165;-79
2023/05/12 09:02:03;;;;;;;2.67;2.47;;;10.90;99.90;;;;;;5034676;28;21071;-79
2023/05/12 09:04:31;;;;;;;3.10;2.90;;;10.90;99.90;;;;;;5042634;28;21093;-79
2023/05/12 09:06:59;;;;;;;3.13;2.33;;;11.00;99.90;;;;;;5046668;28;20469;-79
2023/05/12 09:09:31;;;;;;;3.70;3.50;;;11.10;99.90;;;;;;5036771;28;20442;-81
2023/05/12 09:12:02;;;;;;;2.53;2.40;;;11.10;99.90;;;;;;5032920;28;20485;-78
2023/05/12 09:14:33;;;;;;;2.97;2.77;;;11.10;99.90;;;;;;5040014;28;20468;-81
2023/05/12 09:17:03;;;;;;;3.23;2.57;;;11.10;99.90;;;;;;5043747;28;20472;-81
2023/05/12 09:19:31;;;;;;;2.43;2.33;;;11.10;99.90;;;;;;5033847;28;20945;-79
2023/05/12 09:21:58;;;;;;;2.90;2.70;;;11.10;99.90;;;;;;5041130;28;20990;-80
2023/05/12 09:24:36;;;;;;;2.70;2.10;;;11.10;99.90;;;;;;5039193;28;20473;-81
2023/05/12 09:27:04;;;;;;;2.03;1.93;;;11.30;99.90;;;;;;5039339;28;20507;-81
2023/05/12 09:29:31;;;;;;;3.50;3.27;;;11.40;99.90;;;;;;5033696;28;20533;-79
2023/05/12 09:32:00;;;;;;;3.57;3.30;;;11.50;99.90;;;;;;5033155;28;20513;-79
2023/05/12 09:34:29;;;;;;;3.63;2.03;;;11.50;99.90;;;;;;5043860;28;20480;-80
2023/05/12 09:36:57;;;;;;;2.80;2.60;;;11.50;99.90;;;;;;5037634;28;20551;-80
2023/05/12 09:39:25;;;;;;;2.23;2.13;;;11.60;99.90;;;;;;5038101;28;21193;-78
2023/05/12 09:41:53;;;;;;;2.33;2.23;;;11.50;99.90;;;;;;5048820;28;20479;-79
2023/05/12 09:44:21;;;;;;;2.53;2.40;;;11.60;99.90;;;;;;5038942;28;20493;-80
2023/05/12 09:46:50;;;;;;;3.20;3.00;;;11.60;99.90;;;;;;5060777;28;20456;-79
2023/05/12 09:49:20;;;;;;;3.07;2.87;;;11.60;99.90;;;;;;5061217;28;20456;-79
2023/05/12 09:51:51;;;;;;;2.50;2.40;;;11.80;99.90;;;;;;5054845;28;20469;-78
2023/05/12 09:54:25;;;;;;;2.50;2.40;;;11.80;99.90;;;;;;5050167;28;20510;-79
2023/05/12 09:56:58;;;;;;;1.93;1.83;;;11.90;99.90;;;;;;5040254;28;20466;-78
2023/05/12 09:59:29;;;;;;;2.37;2.27;;;11.90;99.90;;;;;;5041747;28;20469;-79
2023/05/12 10:01:59;;;;;;;1.70;1.60;;;11.80;99.90;;;;;;5042293;28;20803;-79
2023/05/12 10:04:28;;;;;;;1.90;1.80;;;11.80;99.90;;;;;;5040992;28;20520;-79
2023/05/12 10:06:57;;;;;;;2.70;2.60;;;11.90;99.90;;;;;;5041173;28;20609;-79
2023/05/12 10:09:28;;;;;;;2.53;2.40;;;11.80;99.90;;;;;;5042259;28;20454;-79
2023/05/12 10:11:59;;;;;;;2.47;2.27;;;11.80;99.90;;;;;;5042959;28;20566;-78
2023/05/12 10:14:26;;;;;;;2.77;2.57;;;11.90;99.90;;;;;;5043177;28;20465;-80
2023/05/12 10:16:55;;;;;;;2.17;2.07;;;12.00;99.90;;;;;;5037405;28;20441;-81
2023/05/12 10:19:24;;;;;;;1.90;1.80;;;11.90;99.90;;;;;;5040876;28;20476;-79
2023/05/12 10:21:52;;;;;;;2.20;2.10;;;12.00;99.90;;;;;;5044279;28;20516;-79
2023/05/12 10:24:20;;;;;;;2.20;2.00;;;12.00;99.90;;;;;;5040732;28;20523;-81
2023/05/12 10:26:48;;;;;;;2.10;2.00;;;12.10;99.90;;;;;;5049384;28;20460;-81
2023/05/12 10:29:16;;;;;;;1.90;1.80;;;12.10;99.90;;;;;;5036110;28;20474;-78
2023/05/12 10:31:45;;;;;;;2.37;2.17;;;12.10;99.90;;;;;;5037895;28;20484;-81
2023/05/12 10:34:17;;;;;;;2.00;1.90;;;12.10;99.90;;;;;;5040547;28;21015;-81
2023/05/12 10:36:48;;;;;;;2.20;2.10;;;12.20;99.90;;;;;;5041043;28;20925;-80
2023/05/12 10:39:15;;;;;;;1.80;1.70;;;12.20;99.90;;;;;;5038595;28;20469;-79
2023/05/12 10:41:42;;;;;;;1.73;1.63;;;12.20;99.90;;;;;;5043768;28;20467;-81
2023/05/12 10:44:09;;;;;;;2.70;2.47;;;12.20;99.90;;;;;;5043422;28;20550;-78
2023/05/12 10:46:38;;;;;;;2.00;1.90;;;12.20;99.90;;;;;;5046161;28;20557;-80
2023/05/12 10:49:08;;;;;;;1.50;1.40;;;12.10;99.90;;;;;;5047311;28;20460;-79
2023/05/12 10:51:48;;;;;;;2.50;2.30;;;12.30;99.90;;;;;;5036193;28;20489;-79
2023/05/12 10:54:43;;;;;;;2.10;1.90;;;12.20;99.90;;;;;;5047011;28;20543;-80
2023/05/12 10:57:15;;;;;;;4.27;1.63;;;12.40;99.90;;;;;;5035648;28;20541;-79
2023/05/12 10:59:49;;;;;;;2.20;1.87;;;12.50;99.90;;;;;;5049921;28;21225;-81
2023/05/12 11:02:18;;;;;;;2.50;2.30;;;12.50;99.90;;;;;;5041341;28;20465;-80
2023/05/12 11:04:50;;;;;;;1.83;1.73;;;12.40;99.90;;;;;;5042543;28;20495;-80
2023/05/12 11:07:25;;;;;;;1.23;1.13;;;12.30;99.90;;;;;;5045269;28;20463;-78
2023/05/12 11:09:52;;;;;;;2.80;2.23;;;12.30;99.90;;;;;;5044200;28;20464;-80
2023/05/12 11:12:19;;;;;;;2.23;2.03;;;12.40;99.90;;;;;;5046903;28;20492;-81
2023/05/12 11:14:47;;;;;;;2.30;2.10;;;12.40;99.90;;;;;;5044338;28;20530;-79
2023/05/12 11:17:15;;;;;;;1.70;1.60;;;12.40;99.90;;;;;;5042899;28;20454;-81
2023/05/12 11:19:49;;;;;;;2.43;2.23;;;12.60;99.90;;;;;;5044921;28;20468;-79
2023/05/12 11:22:18;;;;;;;1.60;1.47;;;12.70;99.90;;;;;;5046433;28;21038;-81
2023/05/12 11:24:46;;;;;;;1.37;1.33;;;12.50;99.90;;;;;;5043459;28;20460;-78
2023/05/12 11:27:14;;;;;;;1.80;1.70;;;12.60;99.90;;;;;;5035627;28;20453;-79
2023/05/12 11:29:42;;;;;;;1.90;1.80;;;12.70;99.90;;;;;;5047310;28;20465;-78
2023/05/12 11:32:11;;;;;;;2.70;1.87;;;12.80;99.90;;;;;;5039777;28;20517;-76
2023/05/12 11:34:38;;;;;;;2.27;2.17;;;12.90;99.90;;;;;;5047981;28;20476;-79
2023/05/12 11:37:07;;;;;;;2.10;2.00;;;12.80;99.90;;;;;;5038034;28;20476;-77
2023/05/12 11:39:35;;;;;;;2.03;1.90;;;12.80;99.90;;;;;;5043353;28;20561;-79
2023/05/12 11:42:04;;;;;;;1.30;1.20;;;13.00;99.90;;;;;;5044129;28;20508;-78
2023/05/12 11:44:32;;;;;;;0.90;0.90;;;13.00;99.90;;;;;;5045598;28;21226;-78
2023/05/12 11:47:01;;;;;;;1.30;1.20;;;12.90;99.90;;;;;;5039619;28;20453;-78
2023/05/12 11:49:29;;;;;;;1.57;1.47;;;12.80;99.90;;;;;;5032865;28;20469;-79
2023/05/12 11:51:58;;;;;;;1.70;1.40;;;12.90;99.90;;;;;;5044043;28;20484;-78
2023/05/12 11:54:28;;;;;;;2.47;2.33;;;12.90;99.90;;;;;;5046641;28;21027;-81
2023/05/12 11:56:56;;;;;;;1.60;1.50;;;12.70;99.90;;;;;;5044709;28;20441;-79
2023/05/12 11:59:28;;;;;;;2.03;1.90;;;12.60;99.90;;;;;;5048496;28;20437;-78
2023/05/12 12:01:55;;;;;;;1.40;1.30;;;12.70;99.90;;;;;;5040495;28;20468;-79
2023/05/12 12:04:35;;;;;;;1.40;1.30;;;12.60;99.90;;;;;;5056944;28;20857;-78
2023/05/12 12:07:02;;;;;;;1.73;1.63;;;12.60;99.90;;;;;;5041950;28;20555;-79
2023/05/12 12:09:36;;;;;;;2.30;2.10;;;12.60;99.90;;;;;;5043459;28;20506;-79
2023/05/12 12:12:05;;;;;;;2.07;1.23;;;12.40;99.90;;;;;;5035540;28;20478;-78
2023/05/12 12:14:33;;;;;;;1.53;1.47;;;12.40;99.90;;;;;;5029163;28;20570;-79
2023/05/12 12:17:00;;;;;;;1.67;1.57;;;12.40;99.90;;;;;;5045967;28;20465;-77
2023/05/12 12:19:28;;;;;;;1.63;1.53;;;12.30;99.90;;;;;;5043629;28;20457;-78
2023/05/12 12:21:54;;;;;;;3.53;2.10;;;12.20;99.90;;;;;;5042110;28;20462;-79
2023/05/12 12:24:22;;;;;;;1.90;1.53;;;12.30;99.90;;;;;;5042165;28;20465;-80
2023/05/12 12:26:50;;;;;;;5.70;2.00;;;12.20;99.90;;;;;;5045172;28;20503;-81
2023/05/12 12:29:17;;;;;;;1.93;1.83;;;12.10;99.90;;;;;;5031533;28;21030;-79
2023/05/12 12:31:45;;;;;;;1.93;1.83;;;12.10;99.90;;;;;;5039167;28;20481;-80
2023/05/12 12:34:12;;;;;;;4.13;1.53;;;12.30;99.90;;;;;;5036831;28;20461;-78
2023/05/12 12:36:39;;;;;;;1.83;1.73;;;12.40;99.90;;;;;;5040465;28;20489;-78
2023/05/12 12:39:06;;;;;;;1.80;1.70;;;12.60;99.90;;;;;;5032724;28;20531;-82
2023/05/12 12:41:33;;;;;;;1.77;1.67;;;12.60;99.90;;;;;;5045530;28;20936;-78
2023/05/12 12:44:02;;;;;;;1.60;1.50;;;12.80;99.90;;;;;;5038723;28;20477;-78
2023/05/12 12:46:29;;;;;;;0.90;0.90;;;12.90;99.90;;;;;;5046010;28;20454;-78
2023/05/12 12:48:57;;;;;;;1.37;1.27;;;12.90;99.90;;;;;;5041756;28;20453;-81
2023/05/12 12:51:24;;;;;;;2.37;2.27;;;12.80;99.90;;;;;;5043014;28;20485;-79
2023/05/12 12:53:51;;;;;;;1.67;1.57;;;13.00;99.90;;;;;;5034604;28;20539;-78